Time;durP1;ratioP1;P1;durP2;ratioP2;P2;SDS_P1;SDS_P2;PMS_P1;PMS_P2;Temp;Humidity;BMP_temperature;BMP_pressure;BME280_temperature;BME280_humidity;BME280_pressure;Samples;Min_cycle;Max_cycle;Signal;HPM_P1;HPM_P2
2022/12/18 00:00:42;;;;;;;23.25;12.52;;;21.50;62.20;;;;;;5070545;28;20591;-73
2022/12/18 00:03:08;;;;;;;19.35;12.00;;;21.50;62.10;;;;;;5070426;28;20107;-73
2022/12/18 00:05:34;;;;;;;19.90;11.30;;;21.50;62.00;;;;;;5070328;28;20037;-71
2022/12/18 00:08:00;;;;;;;21.42;12.95;;;21.60;61.90;;;;;;5069704;28;20093;-71
2022/12/18 00:10:27;;;;;;;22.20;11.32;;;21.50;61.90;;;;;;5051528;28;20094;-73
2022/12/18 00:12:53;;;;;;;19.40;11.43;;;21.50;62.20;;;;;;5070551;28;20025;-72
2022/12/18 00:15:19;;;;;;;18.80;11.90;;;21.40;62.00;;;;;;5018460;28;20113;-73
2022/12/18 00:17:45;;;;;;;18.95;10.13;;;21.30;62.40;;;;;;5070535;28;20036;-72
2022/12/18 00:20:11;;;;;;;18.40;11.13;;;21.40;62.80;;;;;;5069614;28;21737;-72
2022/12/18 00:22:37;;;;;;;17.25;10.55;;;21.30;62.20;;;;;;5068054;28;20043;-72
2022/12/18 00:25:04;;;;;;;20.80;11.13;;;21.20;62.20;;;;;;5070377;28;20043;-72
2022/12/18 00:27:30;;;;;;;16.88;10.32;;;21.20;62.20;;;;;;5053248;28;20543;-72
2022/12/18 00:29:56;;;;;;;18.02;9.63;;;21.20;62.30;;;;;;5031446;28;20486;-73
2022/12/18 00:32:22;;;;;;;15.07;9.40;;;21.20;62.60;;;;;;5049112;28;20041;-73
2022/12/18 00:34:47;;;;;;;14.95;9.73;;;21.20;62.60;;;;;;5032141;28;20555;-73
2022/12/18 00:37:14;;;;;;;19.02;9.50;;;21.30;62.40;;;;;;5049767;28;20505;-72
2022/12/18 00:39:40;;;;;;;16.95;10.27;;;21.20;62.30;;;;;;5050558;28;20068;-72
2022/12/18 00:44:54;;;;;;;13.73;8.32;;;21.30;62.60;;;;;;5053082;28;20037;-73
2022/12/18 00:47:20;;;;;;;14.25;8.27;;;21.20;62.10;;;;;;5032249;28;20033;-73
2022/12/18 00:49:46;;;;;;;17.85;9.95;;;21.30;62.40;;;;;;5052486;28;20041;-72
2022/12/18 00:52:12;;;;;;;14.27;8.63;;;21.20;61.70;;;;;;5034374;28;20041;-72
2022/12/18 00:54:38;;;;;;;15.80;8.75;;;21.30;62.00;;;;;;5070139;28;20033;-71
2022/12/18 00:57:04;;;;;;;15.55;9.52;;;21.20;61.70;;;;;;5071981;28;20029;-73
2022/12/18 00:59:30;;;;;;;16.50;8.75;;;21.20;61.60;;;;;;5073522;28;20040;-72
2022/12/18 01:01:56;;;;;;;16.40;9.93;;;21.30;61.90;;;;;;5072860;28;20085;-72
2022/12/18 01:04:22;;;;;;;22.23;10.45;;;21.10;61.50;;;;;;5070373;28;20169;-73
2022/12/18 01:06:48;;;;;;;16.63;10.18;;;21.20;61.50;;;;;;5037136;28;20140;-72
2022/12/18 01:09:15;;;;;;;16.65;9.52;;;21.10;61.90;;;;;;5053404;28;20459;-73
2022/12/18 01:11:41;;;;;;;15.05;9.25;;;21.20;61.70;;;;;;5053483;28;20039;-73
2022/12/18 01:14:07;;;;;;;17.13;10.38;;;21.00;61.60;;;;;;5063382;28;20139;-73
2022/12/18 01:16:33;;;;;;;15.63;9.10;;;21.10;61.80;;;;;;5073556;28;20037;-73
2022/12/18 01:18:59;;;;;;;16.45;8.40;;;21.00;62.00;;;;;;5056466;28;20020;-72
2022/12/18 01:21:27;;;;;;;15.32;9.30;;;20.90;62.10;;;;;;5075164;28;20036;-72
2022/12/18 01:23:54;;;;;;;17.02;9.13;;;20.90;62.30;;;;;;5090014;28;20028;-72
2022/12/18 01:26:23;;;;;;;16.60;9.63;;;20.90;62.20;;;;;;5055220;28;20078;-72
2022/12/18 01:28:50;;;;;;;13.73;9.35;;;20.90;62.30;;;;;;5055132;28;20048;-72
2022/12/18 01:31:28;;;;;;;15.82;9.95;;;20.90;62.40;;;;;;5073810;28;20465;-72
2022/12/18 01:33:54;;;;;;;16.67;9.35;;;20.90;62.20;;;;;;5089613;28;20020;-72
2022/12/18 01:36:26;;;;;;;13.98;8.75;;;20.90;62.30;;;;;;5055069;28;20104;-72
2022/12/18 01:38:53;;;;;;;15.23;8.88;;;21.00;62.10;;;;;;5072834;28;20036;-70
2022/12/18 01:41:25;;;;;;;14.80;9.20;;;20.90;62.00;;;;;;5054883;28;20086;-72
2022/12/18 01:43:57;;;;;;;16.38;9.93;;;20.90;61.90;;;;;;5072726;28;20532;-73
2022/12/18 01:46:24;;;;;;;17.35;9.05;;;20.90;61.90;;;;;;5072782;28;20741;-72
2022/12/18 01:48:56;;;;;;;15.05;9.02;;;20.90;62.00;;;;;;5084704;28;20035;-73
2022/12/18 01:51:24;;;;;;;19.17;10.68;;;21.10;61.40;;;;;;5088978;28;20485;-72
2022/12/18 01:53:50;;;;;;;15.82;8.82;;;21.00;61.40;;;;;;5059829;28;20119;-71
2022/12/18 01:56:18;;;;;;;17.48;10.00;;;21.00;61.20;;;;;;5055882;28;20107;-70
2022/12/18 01:58:50;;;;;;;16.67;9.60;;;21.10;61.10;;;;;;5074835;28;20373;-72
2022/12/18 02:01:17;;;;;;;19.73;10.82;;;21.00;61.20;;;;;;5093054;28;20537;-73
2022/12/18 02:03:44;;;;;;;15.25;10.30;;;21.10;61.40;;;;;;5091200;28;20086;-73
2022/12/18 02:06:19;;;;;;;14.27;9.50;;;21.00;61.30;;;;;;5049650;28;20899;-72
2022/12/18 02:09:15;;;;;;;17.05;10.10;;;21.00;61.20;;;;;;5032029;28;20045;-73
2022/12/18 02:12:06;;;;;;;15.98;10.32;;;20.90;61.50;;;;;;5029617;28;20041;-73
2022/12/18 02:14:44;;;;;;;15.50;9.93;;;21.00;61.20;;;;;;5029479;28;20049;-72
2022/12/18 02:17:23;;;;;;;16.98;10.05;;;20.90;61.00;;;;;;5029868;28;20053;-73
2022/12/18 02:20:22;;;;;;;20.48;9.75;;;20.90;61.50;;;;;;5028933;28;20371;-72
2022/12/18 02:23:17;;;;;;;16.20;10.10;;;20.80;61.50;;;;;;4978900;28;20176;-73
2022/12/18 02:26:01;;;;;;;14.68;9.02;;;20.80;61.70;;;;;;5005300;28;20065;-72
2022/12/18 02:28:32;;;;;;;17.65;9.90;;;20.70;61.90;;;;;;5029408;28;20130;-72
2022/12/18 02:31:05;;;;;;;16.30;9.68;;;20.80;61.60;;;;;;5029502;28;20090;-73
2022/12/18 02:33:34;;;;;;;16.65;9.38;;;20.80;61.40;;;;;;5028267;28;20041;-73
2022/12/18 02:36:01;;;;;;;15.70;10.05;;;20.80;61.40;;;;;;5028178;28;20053;-72
2022/12/18 02:38:30;;;;;;;15.07;9.93;;;20.80;60.90;;;;;;5049000;28;20033;-73
2022/12/18 02:41:03;;;;;;;16.25;10.10;;;20.80;61.00;;;;;;5049258;28;20174;-72
2022/12/18 02:43:29;;;;;;;14.45;9.43;;;20.80;61.10;;;;;;5028514;28;20087;-72
2022/12/18 02:45:59;;;;;;;16.48;10.45;;;20.70;61.10;;;;;;5045001;28;20450;-72
2022/12/18 02:48:32;;;;;;;18.90;10.20;;;20.80;61.00;;;;;;5036857;28;20041;-73
2022/12/18 02:51:11;;;;;;;15.75;9.10;;;20.70;61.00;;;;;;5032472;28;20045;-73
2022/12/18 02:53:44;;;;;;;15.23;10.18;;;20.80;61.20;;;;;;5032222;28;20049;-73
2022/12/18 02:56:21;;;;;;;21.30;10.73;;;20.80;61.00;;;;;;5032399;28;20041;-73
2022/12/18 02:59:02;;;;;;;18.15;10.48;;;20.80;60.70;;;;;;5031857;28;20053;-71
2022/12/18 03:01:51;;;;;;;14.75;9.48;;;20.90;60.90;;;;;;5051584;28;20044;-72
2022/12/18 03:04:30;;;;;;;20.00;11.80;;;20.80;60.30;;;;;;5031067;28;20056;-72
2022/12/18 03:07:01;;;;;;;19.83;10.95;;;20.80;60.10;;;;;;5047550;28;20033;-71
2022/12/18 03:09:42;;;;;;;18.63;11.38;;;20.80;60.20;;;;;;5047544;28;20481;-73
2022/12/18 03:12:28;;;;;;;18.50;11.27;;;20.90;60.30;;;;;;5031535;28;20108;-71
2022/12/18 03:15:04;;;;;;;20.02;11.00;;;20.80;60.00;;;;;;5073293;28;20489;-73
2022/12/18 03:17:33;;;;;;;19.95;12.27;;;20.70;60.20;;;;;;5089240;28;20036;-73
2022/12/18 03:20:05;;;;;;;18.25;10.85;;;20.70;60.30;;;;;;5090512;28;20055;-72
2022/12/18 03:22:34;;;;;;;17.08;11.35;;;20.80;60.50;;;;;;5090036;28;20028;-73
2022/12/18 03:25:06;;;;;;;17.45;11.02;;;20.70;60.30;;;;;;5090131;28;20036;-72
2022/12/18 03:27:35;;;;;;;13.15;8.15;;;20.80;60.20;;;;;;5091484;28;20071;-73
2022/12/18 03:30:10;;;;;;;16.00;8.15;;;20.80;60.80;;;;;;5089935;28;20473;-72
2022/12/18 03:33:17;;;;;;;17.23;10.38;;;20.70;60.30;;;;;;5087404;28;20039;-72
2022/12/18 03:35:46;;;;;;;19.67;11.57;;;20.70;60.20;;;;;;5069623;28;20060;-73
2022/12/18 03:38:13;;;;;;;17.15;10.93;;;20.80;60.50;;;;;;5069709;28;20470;-72
2022/12/18 03:40:46;;;;;;;17.60;10.95;;;20.70;60.30;;;;;;5069757;28;20052;-73
2022/12/18 03:43:51;;;;;;;19.65;10.90;;;20.70;60.40;;;;;;5069260;28;20032;-72
2022/12/18 03:46:28;;;;;;;17.60;11.13;;;20.70;60.30;;;;;;5008387;28;20049;-72
2022/12/18 03:49:20;;;;;;;20.88;11.07;;;20.70;60.40;;;;;;5017400;28;20053;-71
2022/12/18 03:52:01;;;;;;;18.63;11.45;;;20.70;60.60;;;;;;5011277;28;20046;-73
2022/12/18 03:54:29;;;;;;;18.83;10.95;;;20.80;60.40;;;;;;5010729;28;20119;-72
2022/12/18 03:57:14;;;;;;;21.35;11.02;;;20.80;60.40;;;;;;5010612;28;20060;-73
2022/12/18 03:59:42;;;;;;;18.50;10.52;;;20.60;60.20;;;;;;5010820;28;20037;-72
2022/12/18 04:02:09;;;;;;;16.48;8.63;;;20.70;60.20;;;;;;5011456;28;20642;-71
2022/12/18 04:04:39;;;;;;;19.55;11.38;;;20.80;60.40;;;;;;5010003;28;20033;-73
2022/12/18 04:07:07;;;;;;;22.60;11.93;;;20.80;59.80;;;;;;5011452;28;20033;-72
2022/12/18 04:09:39;;;;;;;17.83;10.93;;;20.60;59.80;;;;;;5011765;28;20077;-71
2022/12/18 04:12:05;;;;;;;17.00;10.98;;;20.60;60.10;;;;;;5011612;28;20034;-73
2022/12/18 04:14:35;;;;;;;16.95;11.70;;;20.70;60.30;;;;;;5011200;28;20053;-73
2022/12/18 04:17:03;;;;;;;20.65;11.75;;;20.50;60.40;;;;;;5011411;28;20057;-72
2022/12/18 04:19:32;;;;;;;18.92;10.68;;;20.50;60.50;;;;;;5010714;28;20139;-72
2022/12/18 04:21:59;;;;;;;21.75;12.32;;;20.50;60.60;;;;;;5027753;28;20025;-72
2022/12/18 04:24:26;;;;;;;22.92;12.15;;;20.50;60.90;;;;;;5075275;28;20412;-72
2022/12/18 04:27:03;;;;;;;20.85;12.35;;;20.40;60.90;;;;;;5037337;28;20123;-73
2022/12/18 04:29:33;;;;;;;19.40;11.88;;;20.50;60.80;;;;;;5040344;28;20044;-72
2022/12/18 04:31:59;;;;;;;16.88;10.75;;;20.40;60.90;;;;;;5069347;28;20055;-71
2022/12/18 04:34:27;;;;;;;19.60;11.32;;;20.50;61.10;;;;;;5053259;28;20044;-73
2022/12/18 04:36:54;;;;;;;20.95;12.00;;;20.40;60.70;;;;;;5054849;28;20060;-72
2022/12/18 04:39:22;;;;;;;20.70;12.65;;;20.40;61.10;;;;;;5038699;28;20499;-72
2022/12/18 04:41:50;;;;;;;21.63;13.52;;;20.30;61.00;;;;;;5024888;28;20045;-72
2022/12/18 04:44:16;;;;;;;22.15;12.65;;;20.30;61.10;;;;;;5032791;28;20041;-70
2022/12/18 04:46:42;;;;;;;22.67;11.65;;;20.40;61.30;;;;;;5030788;28;20481;-73
2022/12/18 04:49:10;;;;;;;23.55;12.88;;;20.30;61.50;;;;;;5029322;28;20064;-72
2022/12/18 04:51:37;;;;;;;22.75;12.68;;;20.20;61.00;;;;;;5030990;28;20052;-72
2022/12/18 04:54:03;;;;;;;22.88;12.52;;;20.30;61.50;;;;;;5047820;28;20065;-72
2022/12/18 04:56:31;;;;;;;21.15;12.32;;;20.30;61.50;;;;;;5014752;28;20049;-72
2022/12/18 04:58:57;;;;;;;21.90;12.40;;;20.20;62.10;;;;;;5023337;28;20046;-73
2022/12/18 05:01:23;;;;;;;23.20;12.15;;;20.30;62.00;;;;;;5048057;28;20045;-72
2022/12/18 05:03:51;;;;;;;21.73;11.88;;;20.30;61.70;;;;;;5065765;28;20086;-72
2022/12/18 05:06:17;;;;;;;21.15;12.32;;;20.40;61.70;;;;;;5068477;28;20037;-73
2022/12/18 05:08:43;;;;;;;20.98;12.23;;;20.40;61.40;;;;;;5055528;28;20044;-72
2022/12/18 05:11:12;;;;;;;21.30;12.13;;;20.40;61.60;;;;;;5069862;28;20474;-72
2022/12/18 05:13:38;;;;;;;20.90;12.38;;;20.30;61.50;;;;;;5083446;28;20044;-72
2022/12/18 05:16:05;;;;;;;22.65;12.05;;;20.40;61.60;;;;;;5060696;28;20045;-72
2022/12/18 05:18:31;;;;;;;24.05;12.95;;;20.40;61.30;;;;;;5067817;28;20036;-73
2022/12/18 05:20:57;;;;;;;23.60;13.02;;;20.40;61.20;;;;;;5073534;28;20085;-73
2022/12/18 05:23:24;;;;;;;22.55;12.55;;;20.50;61.40;;;;;;5073337;28;20115;-73
2022/12/18 05:26:02;;;;;;;24.90;12.75;;;20.50;61.30;;;;;;5073551;28;20029;-72
2022/12/18 05:28:30;;;;;;;19.85;12.30;;;20.60;61.10;;;;;;5073257;28;20043;-73
2022/12/18 05:31:00;;;;;;;24.45;13.13;;;20.50;61.20;;;;;;5055098;28;20109;-71
2022/12/18 05:33:29;;;;;;;24.95;12.68;;;20.60;60.80;;;;;;5066695;28;20025;-73
2022/12/18 05:35:57;;;;;;;20.85;12.82;;;20.60;61.00;;;;;;5071437;28;20524;-73
2022/12/18 05:38:24;;;;;;;24.20;13.80;;;20.70;60.60;;;;;;5072836;28;20477;-72
2022/12/18 05:40:51;;;;;;;23.92;13.45;;;20.70;60.40;;;;;;5057727;28;20044;-72
2022/12/18 05:43:19;;;;;;;23.45;13.35;;;20.70;60.50;;;;;;5052927;28;20052;-71
2022/12/18 05:45:45;;;;;;;19.95;12.32;;;20.70;60.00;;;;;;5050829;28;20029;-73
2022/12/18 05:48:12;;;;;;;24.35;13.32;;;20.80;60.00;;;;;;5007059;28;20442;-72
2022/12/18 05:50:41;;;;;;;26.45;14.00;;;20.90;60.00;;;;;;5052512;28;20469;-72
2022/12/18 05:53:07;;;;;;;24.73;14.48;;;20.80;59.80;;;;;;5052148;28;20029;-72
2022/12/18 05:55:37;;;;;;;21.00;12.70;;;20.80;59.90;;;;;;5051849;28;20040;-73
2022/12/18 05:58:05;;;;;;;22.08;12.65;;;20.80;60.00;;;;;;5051982;28;20057;-71
2022/12/18 06:00:32;;;;;;;28.40;13.82;;;20.90;59.60;;;;;;5051954;28;20107;-73
2022/12/18 06:02:58;;;;;;;24.40;13.48;;;20.90;59.30;;;;;;5045689;28;20127;-72
2022/12/18 06:05:25;;;;;;;25.05;13.48;;;20.90;59.30;;;;;;5039031;28;20481;-73
2022/12/18 06:07:51;;;;;;;26.70;15.88;;;20.90;59.60;;;;;;5017733;28;20052;-73
2022/12/18 06:10:17;;;;;;;29.42;16.40;;;20.90;59.30;;;;;;5052642;28;20441;-73
2022/12/18 06:12:43;;;;;;;28.23;14.35;;;21.00;58.00;;;;;;5054948;28;20036;-71
2022/12/18 06:15:10;;;;;;;28.38;14.75;;;20.90;58.80;;;;;;5057590;28;20155;-72
2022/12/18 06:17:36;;;;;;;23.77;14.18;;;20.90;58.80;;;;;;5060317;28;20032;-72
2022/12/18 06:20:06;;;;;;;18.40;13.30;;;20.90;54.90;;;;;;5060364;28;20064;-74
2022/12/18 06:22:32;;;;;;;25.67;15.90;;;20.80;49.60;;;;;;5045842;28;20039;-72
2022/12/18 06:24:59;;;;;;;16.35;11.07;;;20.90;47.40;;;;;;5059614;28;20048;-72
2022/12/18 06:27:25;;;;;;;18.80;11.82;;;20.90;47.20;;;;;;5061336;28;20032;-73
2022/12/18 06:29:51;;;;;;;20.98;12.43;;;20.90;45.40;;;;;;5061494;28;20033;-71
2022/12/18 06:32:17;;;;;;;18.10;12.27;;;21.00;44.70;;;;;;5059633;28;20552;-71
2022/12/18 06:34:43;;;;;;;18.88;10.88;;;21.10;42.50;;;;;;5060782;28;20473;-71
2022/12/18 06:37:09;;;;;;;16.67;10.88;;;21.30;43.90;;;;;;5062501;28;20819;-71
2022/12/18 06:39:35;;;;;;;22.00;13.77;;;21.30;42.70;;;;;;5059576;28;20028;-72
2022/12/18 06:42:01;;;;;;;22.60;12.80;;;21.40;43.00;;;;;;5059244;28;20042;-74
2022/12/18 06:44:27;;;;;;;23.15;13.70;;;21.40;43.70;;;;;;5043580;28;20033;-71
2022/12/18 06:46:52;;;;;;;24.10;13.35;;;21.50;42.20;;;;;;5059689;28;20397;-71
2022/12/18 06:49:18;;;;;;;22.33;13.00;;;21.60;43.00;;;;;;5071106;28;20569;-72
2022/12/18 06:51:44;;;;;;;19.48;12.63;;;21.70;45.00;;;;;;5071101;28;20393;-71
2022/12/18 06:54:10;;;;;;;19.27;13.02;;;21.70;45.30;;;;;;5060124;28;20037;-72
2022/12/18 06:56:36;;;;;;;18.60;10.27;;;21.80;43.90;;;;;;5060730;28;20036;-70
2022/12/18 06:59:02;;;;;;;24.88;14.60;;;21.80;44.60;;;;;;5056733;28;20433;-72
2022/12/18 07:01:28;;;;;;;19.08;11.98;;;21.90;43.60;;;;;;5057736;28;20123;-73
2022/12/18 07:03:55;;;;;;;15.65;9.20;;;21.80;41.50;;;;;;5069419;28;20029;-73
2022/12/18 07:06:24;;;;;;;24.92;16.15;;;21.80;41.00;;;;;;5059292;28;20038;-72
2022/12/18 07:08:51;;;;;;;15.98;8.30;;;21.90;50.80;;;;;;5046378;28;20032;-74
2022/12/18 07:11:18;;;;;;;19.13;9.50;;;22.00;57.90;;;;;;5067642;28;20032;-74
2022/12/18 07:13:45;;;;;;;14.02;6.03;;;22.00;59.50;;;;;;5053081;28;20055;-74
2022/12/18 07:16:14;;;;;;;24.13;7.95;;;22.10;61.60;;;;;;5069499;28;20086;-73
2022/12/18 07:18:40;;;;;;;24.00;14.35;;;22.20;61.20;;;;;;5051207;28;20029;-72
2022/12/18 07:21:11;;;;;;;22.90;11.85;;;22.30;54.40;;;;;;5033477;28;20033;-71
2022/12/18 07:23:37;;;;;;;17.13;7.03;;;22.00;56.30;;;;;;5060463;28;20130;-69
2022/12/18 07:26:08;;;;;;;19.67;11.48;;;22.10;54.30;;;;;;5065758;28;20528;-71
2022/12/18 07:28:36;;;;;;;23.00;15.18;;;22.00;53.40;;;;;;5037145;28;20386;-74
2022/12/18 07:31:08;;;;;;;26.55;14.23;;;22.00;47.50;;;;;;5043530;28;20055;-72
2022/12/18 07:33:34;;;;;;;25.33;15.65;;;22.00;52.40;;;;;;5070491;28;20028;-73
2022/12/18 07:36:03;;;;;;;22.15;11.50;;;22.00;49.10;;;;;;5071128;28;20063;-72
2022/12/18 07:38:29;;;;;;;28.48;14.88;;;21.90;54.40;;;;;;5061453;28;20032;-71
2022/12/18 07:41:04;;;;;;;24.20;13.18;;;22.00;52.50;;;;;;5059691;28;20029;-76
2022/12/18 07:43:30;;;;;;;22.67;13.60;;;22.00;53.40;;;;;;5053165;28;20040;-73
2022/12/18 07:45:56;;;;;;;23.10;14.00;;;22.00;54.30;;;;;;5070765;28;20037;-74
2022/12/18 07:48:22;;;;;;;23.63;13.57;;;22.10;54.10;;;;;;5055830;28;20136;-74
2022/12/18 07:50:48;;;;;;;23.00;13.60;;;22.00;53.90;;;;;;5050910;28;20119;-76
2022/12/18 07:53:14;;;;;;;25.27;13.52;;;21.80;54.70;;;;;;5050618;28;20108;-76
2022/12/18 07:55:41;;;;;;;24.02;12.75;;;21.70;56.00;;;;;;5051299;28;20029;-74
2022/12/18 07:58:08;;;;;;;20.88;11.65;;;21.80;56.10;;;;;;5052792;28;20037;-73
2022/12/18 08:00:34;;;;;;;23.10;13.82;;;21.80;56.90;;;;;;5059702;28;20043;-74
2022/12/18 08:03:01;;;;;;;24.17;13.20;;;21.80;54.40;;;;;;5055630;28;20358;-78
2022/12/18 08:05:28;;;;;;;26.92;11.57;;;21.90;56.50;;;;;;5070643;28;20712;-78
2022/12/18 08:07:54;;;;;;;25.40;12.48;;;21.80;56.40;;;;;;5073169;28;20029;-77
2022/12/18 08:10:21;;;;;;;23.85;12.68;;;21.90;56.60;;;;;;5025937;28;20486;-73
2022/12/18 08:12:50;;;;;;;21.15;12.27;;;22.00;57.20;;;;;;5061914;28;20041;-74
2022/12/18 08:15:16;;;;;;;24.17;13.85;;;22.00;57.80;;;;;;5068898;28;20067;-69
2022/12/18 08:17:42;;;;;;;22.27;12.68;;;22.10;57.50;;;;;;5048110;28;20017;-69
2022/12/18 08:20:09;;;;;;;24.85;14.75;;;22.10;56.10;;;;;;5065040;28;20437;-70
2022/12/18 08:22:35;;;;;;;23.50;13.70;;;22.10;54.20;;;;;;5060479;28;20033;-70
2022/12/18 08:25:04;;;;;;;19.83;11.60;;;22.00;58.20;;;;;;5058025;28;20107;-69
2022/12/18 08:27:30;;;;;;;32.53;15.80;;;22.10;48.90;;;;;;5023613;28;20040;-71
2022/12/18 08:29:57;;;;;;;14.10;9.32;;;22.60;52.70;;;;;;5013746;28;20041;-69
2022/12/18 08:32:24;;;;;;;16.15;11.90;;;22.70;43.30;;;;;;5073685;28;20206;-69
2022/12/18 08:34:50;;;;;;;17.75;11.18;;;22.90;38.90;;;;;;5074337;28;20067;-69
2022/12/18 08:37:16;;;;;;;16.08;8.20;;;22.80;37.30;;;;;;5074139;28;20060;-67
2022/12/18 08:39:42;;;;;;;18.15;12.10;;;22.90;38.90;;;;;;5022062;28;20087;-68
2022/12/18 08:44:53;;;;;;;21.88;14.25;;;23.10;39.40;;;;;;5057702;28;20048;-67
2022/12/18 08:47:19;;;;;;;18.52;10.90;;;23.00;36.90;;;;;;5063316;28;20072;-67
2022/12/18 08:49:45;;;;;;;15.60;9.65;;;23.10;36.90;;;;;;5072546;28;20533;-68
2022/12/18 08:52:11;;;;;;;22.65;12.13;;;23.20;35.50;;;;;;5061202;28;20112;-71
2022/12/18 08:54:40;;;;;;;23.33;11.23;;;23.20;45.90;;;;;;5069672;28;20089;-71
2022/12/18 08:57:06;;;;;;;21.08;11.52;;;23.00;50.20;;;;;;5070986;28;20036;-71
2022/12/18 08:59:32;;;;;;;13.80;8.18;;;23.00;52.00;;;;;;5063618;28;20085;-69
2022/12/18 09:01:58;;;;;;;19.95;10.55;;;22.70;48.00;;;;;;5042910;28;20481;-72
2022/12/18 09:04:24;;;;;;;22.70;11.90;;;22.70;50.20;;;;;;5025633;28;20050;-71
2022/12/18 09:06:50;;;;;;;14.35;8.02;;;22.70;46.90;;;;;;5062094;28;20069;-71
2022/12/18 09:09:16;;;;;;;20.35;12.52;;;22.60;51.60;;;;;;5028870;28;20041;-71
2022/12/18 09:11:42;;;;;;;19.13;11.27;;;22.50;47.80;;;;;;5060459;28;20040;-70
2022/12/18 09:14:09;;;;;;;15.98;8.68;;;22.40;49.60;;;;;;5053364;28;20056;-69
2022/12/18 09:16:35;;;;;;;19.95;10.10;;;22.20;54.00;;;;;;5053573;28;20488;-71
2022/12/18 09:19:03;;;;;;;22.95;13.52;;;22.20;52.20;;;;;;5059912;28;20032;-71
2022/12/18 09:21:32;;;;;;;17.25;9.65;;;22.10;47.50;;;;;;5052729;28;20060;-73
2022/12/18 09:23:58;;;;;;;20.63;10.80;;;22.10;56.20;;;;;;5062572;28;20105;-71
2022/12/18 09:26:26;;;;;;;20.83;11.25;;;22.00;52.50;;;;;;5060603;28;20048;-71
2022/12/18 09:28:52;;;;;;;25.55;12.50;;;22.00;54.50;;;;;;5066579;28;20036;-72
2022/12/18 09:31:21;;;;;;;24.30;11.13;;;21.90;48.80;;;;;;5060163;28;20094;-71
2022/12/18 09:33:47;;;;;;;24.38;14.38;;;21.70;52.30;;;;;;5052164;28;20075;-73
2022/12/18 09:36:15;;;;;;;24.35;13.50;;;21.60;51.40;;;;;;5052851;28;20048;-70
2022/12/18 09:38:41;;;;;;;24.75;13.70;;;21.50;54.20;;;;;;5053277;28;20067;-70
2022/12/18 09:41:31;;;;;;;22.23;14.30;;;21.50;54.80;;;;;;5039308;28;20052;-69
2022/12/18 09:44:02;;;;;;;25.85;12.85;;;21.40;51.50;;;;;;5066937;28;20033;-69
2022/12/18 09:46:33;;;;;;;25.00;14.25;;;21.50;56.50;;;;;;5049684;28;20041;-70
2022/12/18 09:49:05;;;;;;;26.45;13.50;;;21.30;53.30;;;;;;5052591;28;20052;-70
2022/12/18 09:51:40;;;;;;;27.60;13.90;;;21.30;55.40;;;;;;5050401;28;20405;-69
2022/12/18 09:54:29;;;;;;;29.50;15.10;;;21.20;49.00;;;;;;5032493;28;20043;-69
2022/12/18 09:56:55;;;;;;;32.17;15.23;;;21.10;53.80;;;;;;5032822;28;20075;-69
2022/12/18 09:59:26;;;;;;;25.83;14.48;;;21.20;52.90;;;;;;5049639;28;20036;-69
2022/12/18 10:01:52;;;;;;;26.40;13.88;;;21.30;54.00;;;;;;5065261;28;20094;-69
2022/12/18 10:04:18;;;;;;;28.52;12.75;;;21.30;57.30;;;;;;5065198;28;20552;-72
2022/12/18 10:07:42;;;;;;;25.10;11.88;;;21.30;56.30;;;;;;5067853;28;20032;-71
2022/12/18 10:10:35;;;;;;;21.65;11.65;;;21.50;60.80;;;;;;4989499;28;20620;-71
2022/12/18 10:13:39;;;;;;;17.33;9.30;;;21.50;61.70;;;;;;4937348;28;20050;-73
2022/12/18 10:16:41;;;;;;;14.48;7.43;;;21.70;61.70;;;;;;4996553;28;20034;-72
2022/12/18 10:19:16;;;;;;;29.63;14.57;;;22.10;59.60;;;;;;4997689;28;20029;-74
2022/12/18 10:22:07;;;;;;;27.98;14.60;;;22.30;55.00;;;;;;5005931;28;21835;-71
2022/12/18 10:24:56;;;;;;;29.88;15.00;;;22.30;49.90;;;;;;5010018;28;20038;-71
2022/12/18 10:27:25;;;;;;;24.50;13.48;;;22.30;52.50;;;;;;5009930;28;20049;-71
2022/12/18 10:29:52;;;;;;;22.98;13.43;;;22.30;53.30;;;;;;5008587;28;20053;-70
2022/12/18 10:32:20;;;;;;;18.08;10.88;;;22.20;50.90;;;;;;5007179;28;20034;-71
2022/12/18 10:34:48;;;;;;;24.27;14.10;;;22.10;52.30;;;;;;4990062;28;20038;-71
2022/12/18 10:37:24;;;;;;;21.58;12.45;;;22.10;54.40;;;;;;4989980;28;20050;-71
2022/12/18 10:40:14;;;;;;;20.95;11.57;;;22.10;54.00;;;;;;4994024;28;20137;-70
2022/12/18 10:42:41;;;;;;;24.48;12.85;;;22.00;51.30;;;;;;5029286;28;20102;-70
2022/12/18 10:45:20;;;;;;;21.52;11.50;;;22.00;53.40;;;;;;5012059;28;20064;-71
2022/12/18 10:47:48;;;;;;;17.55;10.05;;;22.00;56.10;;;;;;5027874;28;20031;-71
2022/12/18 10:50:28;;;;;;;10.48;5.82;;;22.10;57.20;;;;;;5058393;28;20493;-71
2022/12/18 10:52:59;;;;;;;13.95;9.10;;;22.10;53.40;;;;;;5055244;28;20036;-72
2022/12/18 10:55:38;;;;;;;15.15;7.00;;;22.10;54.00;;;;;;5089644;28;20127;-72
2022/12/18 10:58:38;;;;;;;19.05;9.48;;;22.20;61.80;;;;;;5090778;28;20028;-74
2022/12/18 11:01:08;;;;;;;18.42;10.63;;;22.40;60.10;;;;;;5002451;28;20152;-72
2022/12/18 11:03:40;;;;;;;18.38;9.90;;;22.90;59.10;;;;;;5008824;28;20128;-72
2022/12/18 11:06:15;;;;;;;12.30;7.38;;;23.50;61.60;;;;;;5012567;28;20026;-71
2022/12/18 11:08:43;;;;;;;18.75;11.68;;;23.60;55.90;;;;;;5024363;28;20037;-72
2022/12/18 11:11:20;;;;;;;13.80;8.02;;;23.70;54.30;;;;;;5020775;28;20049;-70
2022/12/18 11:14:14;;;;;;;14.27;8.20;;;23.80;48.70;;;;;;5023461;28;20112;-72
2022/12/18 11:16:45;;;;;;;14.98;7.53;;;23.90;47.90;;;;;;5015720;28;20188;-72
2022/12/18 11:19:28;;;;;;;35.08;9.35;;;23.90;40.50;;;;;;5010701;28;20057;-72
2022/12/18 11:21:55;;;;;;;13.27;8.40;;;24.00;40.70;;;;;;5022105;28;20034;-71
2022/12/18 11:24:34;;;;;;;17.17;9.75;;;24.00;38.40;;;;;;5019014;28;20124;-71
2022/12/18 11:27:05;;;;;;;19.30;10.77;;;24.10;37.30;;;;;;5016902;28;20034;-71
2022/12/18 11:29:39;;;;;;;18.25;10.02;;;24.10;45.50;;;;;;5016429;28;20507;-70
2022/12/18 11:32:43;;;;;;;15.68;9.32;;;24.10;51.90;;;;;;5018049;28;20136;-75
2022/12/18 11:35:19;;;;;;;17.05;9.52;;;23.90;51.10;;;;;;5012164;28;20041;-75
2022/12/18 11:37:53;;;;;;;14.25;9.52;;;23.80;53.40;;;;;;5076496;28;20041;-77
2022/12/18 11:40:24;;;;;;;19.70;10.02;;;23.80;44.60;;;;;;5084678;28;20051;-73
2022/12/18 11:43:31;;;;;;;15.43;9.15;;;23.80;46.40;;;;;;5089195;28;20550;-75
2022/12/18 11:46:08;;;;;;;18.10;10.13;;;24.10;45.20;;;;;;5090518;28;20040;-75
2022/12/18 11:48:41;;;;;;;16.08;8.25;;;24.30;47.10;;;;;;5089529;28;20056;-76
2022/12/18 11:51:15;;;;;;;19.40;11.60;;;24.50;51.20;;;;;;5090034;28;20043;-73
2022/12/18 11:53:41;;;;;;;16.75;9.82;;;24.60;42.90;;;;;;5083096;28;20075;-74
2022/12/18 11:56:44;;;;;;;19.00;10.70;;;24.60;52.80;;;;;;5076322;28;20028;-73
2022/12/18 11:59:25;;;;;;;22.03;11.00;;;24.60;53.30;;;;;;5024656;28;20580;-74
2022/12/18 12:02:09;;;;;;;19.08;11.00;;;24.60;54.10;;;;;;5010471;28;20802;-73
2022/12/18 12:05:18;;;;;;;17.63;10.30;;;24.30;54.40;;;;;;4988857;28;20102;-73
2022/12/18 12:08:11;;;;;;;15.40;8.98;;;24.20;55.60;;;;;;5013990;28;20175;-74
2022/12/18 12:10:37;;;;;;;15.38;9.00;;;24.30;56.50;;;;;;4983407;28;20042;-74
2022/12/18 12:13:21;;;;;;;19.08;9.38;;;24.00;55.40;;;;;;4968289;28;20034;-75
2022/12/18 12:15:47;;;;;;;20.33;10.05;;;23.90;57.50;;;;;;4975423;28;20031;-73
2022/12/18 12:18:24;;;;;;;15.98;8.98;;;24.00;57.60;;;;;;4978144;28;20578;-75
2022/12/18 12:20:53;;;;;;;17.67;10.10;;;23.80;58.50;;;;;;4987627;28;20075;-74
2022/12/18 12:23:34;;;;;;;16.35;9.38;;;23.80;59.20;;;;;;4975114;28;20104;-72
2022/12/18 12:26:08;;;;;;;19.60;9.15;;;23.80;59.10;;;;;;4981801;28;20089;-74
2022/12/18 12:28:37;;;;;;;21.80;10.48;;;23.60;60.50;;;;;;4978131;28;20043;-73
2022/12/18 12:31:36;;;;;;;25.40;11.65;;;23.60;61.10;;;;;;4981305;28;20049;-75
2022/12/18 12:34:19;;;;;;;26.25;12.75;;;23.40;61.60;;;;;;4953927;28;20121;-74
2022/12/18 12:36:56;;;;;;;18.02;10.07;;;23.30;60.80;;;;;;5000047;28;20037;-74
2022/12/18 12:39:35;;;;;;;15.90;9.43;;;23.40;58.90;;;;;;5002157;28;20643;-73
2022/12/18 12:44:55;;;;;;;23.23;10.20;;;23.10;59.50;;;;;;4996865;28;20065;-73
2022/12/18 12:47:30;;;;;;;22.55;10.52;;;23.00;59.80;;;;;;5028260;28;20044;-73
2022/12/18 12:50:00;;;;;;;21.08;10.73;;;23.00;60.20;;;;;;5088859;28;20128;-73
2022/12/18 12:52:37;;;;;;;22.25;10.68;;;23.00;60.40;;;;;;5091097;28;20509;-74
2022/12/18 12:55:08;;;;;;;21.17;10.98;;;22.80;60.20;;;;;;5088707;28;20027;-73
2022/12/18 12:57:40;;;;;;;24.40;11.88;;;23.00;60.90;;;;;;5062201;28;20032;-76
2022/12/18 13:00:14;;;;;;;26.52;12.75;;;22.90;61.00;;;;;;5087768;28;20051;-72